sensor_id;sensor_type;location;lat;lon;timestamp;pressure;altitude;pressure_sealevel;temperature;humidity
75221;BME280;63802;53.232;6.570;2023-06-24T00:01:26;102531.63;;;15.94;100.00
75221;BME280;63802;53.232;6.570;2023-06-24T00:03:51;102523.19;;;15.87;100.00
75221;BME280;63802;53.232;6.570;2023-06-24T00:06:21;102522.31;;;15.83;100.00
75221;BME280;63802;53.232;6.570;2023-06-24T00:08:50;102531.00;;;15.85;100.00
75221;BME280;63802;53.232;6.570;2023-06-24T00:11:16;102539.00;;;15.90;100.00
75221;BME280;63802;53.232;6.570;2023-06-24T00:13:42;102536.69;;;15.92;100.00
75221;BME280;63802;53.232;6.570;2023-06-24T00:16:08;102528.69;;;15.87;100.00
75221;BME280;63802;53.232;6.570;2023-06-24T00:18:34;102527.09;;;15.86;100.00
75221;BME280;63802;53.232;6.570;2023-06-24T00:21:00;102533.34;;;15.83;100.00
75221;BME280;63802;53.232;6.570;2023-06-24T00:23:27;102536.78;;;15.80;100.00
75221;BME280;63802;53.232;6.570;2023-06-24T00:25:54;102534.75;;;15.77;100.00
75221;BME280;63802;53.232;6.570;2023-06-24T00:28:23;102541.41;;;15.76;100.00
75221;BME280;63802;53.232;6.570;2023-06-24T00:30:49;102547.63;;;15.73;100.00
75221;BME280;63802;53.232;6.570;2023-06-24T00:33:15;102547.53;;;15.70;100.00
75221;BME280;63802;53.232;6.570;2023-06-24T00:35:41;102541.13;;;15.66;100.00
75221;BME280;63802;53.232;6.570;2023-06-24T00:38:08;102544.97;;;15.61;100.00
75221;BME280;63802;53.232;6.570;2023-06-24T00:40:33;102540.59;;;15.60;100.00
75221;BME280;63802;53.232;6.570;2023-06-24T00:42:59;102528.53;;;15.49;100.00
75221;BME280;63802;53.232;6.570;2023-06-24T00:45:28;102538.09;;;15.55;100.00
75221;BME280;63802;53.232;6.570;2023-06-24T00:47:55;102535.59;;;15.50;100.00
75221;BME280;63802;53.232;6.570;2023-06-24T00:50:21;102529.91;;;15.43;100.00
75221;BME280;63802;53.232;6.570;2023-06-24T00:52:47;102519.06;;;15.34;100.00
75221;BME280;63802;53.232;6.570;2023-06-24T00:55:14;102536.13;;;15.40;100.00
75221;BME280;63802;53.232;6.570;2023-06-24T00:57:41;102513.03;;;15.29;100.00
75221;BME280;63802;53.232;6.570;2023-06-24T01:00:08;102536.81;;;15.37;100.00
75221;BME280;63802;53.232;6.570;2023-06-24T01:02:44;102508.84;;;15.19;100.00
75221;BME280;63802;53.232;6.570;2023-06-24T01:05:11;102534.69;;;15.30;100.00
75221;BME280;63802;53.232;6.570;2023-06-24T01:07:41;102530.94;;;15.23;100.00
75221;BME280;63802;53.232;6.570;2023-06-24T01:10:08;102528.38;;;15.30;100.00
75221;BME280;63802;53.232;6.570;2023-06-24T01:12:35;102530.44;;;15.33;100.00
75221;BME280;63802;53.232;6.570;2023-06-24T01:15:04;102524.94;;;15.33;100.00
75221;BME280;63802;53.232;6.570;2023-06-24T01:20:33;102526.00;;;15.44;100.00
75221;BME280;63802;53.232;6.570;2023-06-24T01:23:24;102527.34;;;15.50;100.00
75221;BME280;63802;53.232;6.570;2023-06-24T01:34:25;102511.88;;;15.30;100.00
75221;BME280;63802;53.232;6.570;2023-06-24T01:37:10;102511.31;;;15.24;100.00
75221;BME280;63802;53.232;6.570;2023-06-24T01:40:41;102506.72;;;15.28;100.00
75221;BME280;63802;53.232;6.570;2023-06-24T01:42:38;102518.00;;;15.39;100.00
75221;BME280;63802;53.232;6.570;2023-06-24T01:45:06;102502.13;;;15.32;100.00
75221;BME280;63802;53.232;6.570;2023-06-24T01:47:34;102476.91;;;15.15;100.00
75221;BME280;63802;53.232;6.570;2023-06-24T01:50:01;102506.13;;;15.35;100.00
75221;BME280;63802;53.232;6.570;2023-06-24T01:52:29;102499.72;;;15.31;100.00
75221;BME280;63802;53.232;6.570;2023-06-24T01:54:55;102506.75;;;15.44;100.00
75221;BME280;63802;53.232;6.570;2023-06-24T01:57:22;102490.50;;;15.39;100.00
75221;BME280;63802;53.232;6.570;2023-06-24T01:59:48;102491.25;;;15.52;100.00
75221;BME280;63802;53.232;6.570;2023-06-24T02:02:14;102503.84;;;15.68;100.00
75221;BME280;63802;53.232;6.570;2023-06-24T02:04:42;102499.91;;;15.69;100.00
75221;BME280;63802;53.232;6.570;2023-06-24T02:07:09;102495.75;;;15.75;100.00
75221;BME280;63802;53.232;6.570;2023-06-24T02:09:36;102494.63;;;15.76;100.00
75221;BME280;63802;53.232;6.570;2023-06-24T02:12:04;102468.88;;;15.53;100.00
75221;BME280;63802;53.232;6.570;2023-06-24T02:14:31;102469.03;;;15.60;100.00
75221;BME280;63802;53.232;6.570;2023-06-24T02:16:58;102472.53;;;15.57;100.00
75221;BME280;63802;53.232;6.570;2023-06-24T02:19:28;102484.56;;;15.68;100.00
75221;BME280;63802;53.232;6.570;2023-06-24T02:21:56;102494.41;;;15.69;100.00
75221;BME280;63802;53.232;6.570;2023-06-24T02:24:23;102494.06;;;15.71;100.00
75221;BME280;63802;53.232;6.570;2023-06-24T02:26:50;102482.09;;;15.63;100.00
75221;BME280;63802;53.232;6.570;2023-06-24T02:29:17;102490.53;;;15.70;100.00
75221;BME280;63802;53.232;6.570;2023-06-24T02:31:43;102470.66;;;15.61;100.00
75221;BME280;63802;53.232;6.570;2023-06-24T02:34:09;102495.16;;;15.66;100.00
75221;BME280;63802;53.232;6.570;2023-06-24T02:36:34;102482.34;;;15.58;100.00
75221;BME280;63802;53.232;6.570;2023-06-24T02:39:00;102483.31;;;15.50;100.00
75221;BME280;63802;53.232;6.570;2023-06-24T02:41:26;102490.81;;;15.50;100.00
75221;BME280;63802;53.232;6.570;2023-06-24T02:43:51;102484.50;;;15.49;100.00
75221;BME280;63802;53.232;6.570;2023-06-24T02:46:17;102479.88;;;15.53;100.00
75221;BME280;63802;53.232;6.570;2023-06-24T02:48:45;102479.81;;;15.50;100.00
75221;BME280;63802;53.232;6.570;2023-06-24T02:51:11;102470.16;;;15.43;100.00
75221;BME280;63802;53.232;6.570;2023-06-24T02:53:38;102482.63;;;15.53;100.00
75221;BME280;63802;53.232;6.570;2023-06-24T02:56:06;102463.41;;;15.41;100.00
75221;BME280;63802;53.232;6.570;2023-06-24T02:58:33;102490.44;;;15.51;100.00
75221;BME280;63802;53.232;6.570;2023-06-24T03:01:03;102471.81;;;15.45;100.00
75221;BME280;63802;53.232;6.570;2023-06-24T03:03:32;102482.69;;;15.41;100.00
75221;BME280;63802;53.232;6.570;2023-06-24T03:05:58;102483.63;;;15.45;100.00
75221;BME280;63802;53.232;6.570;2023-06-24T03:08:25;102460.31;;;15.27;100.00
75221;BME280;63802;53.232;6.570;2023-06-24T03:10:55;102475.84;;;15.35;100.00
75221;BME280;63802;53.232;6.570;2023-06-24T03:13:21;102488.19;;;15.41;100.00
75221;BME280;63802;53.232;6.570;2023-06-24T03:15:47;102473.00;;;15.31;100.00
75221;BME280;63802;53.232;6.570;2023-06-24T03:18:12;102482.44;;;15.30;100.00
75221;BME280;63802;53.232;6.570;2023-06-24T03:20:38;102472.00;;;15.24;100.00
75221;BME280;63802;53.232;6.570;2023-06-24T03:23:06;102473.19;;;15.23;100.00
75221;BME280;63802;53.232;6.570;2023-06-24T03:25:33;102483.66;;;15.33;100.00
75221;BME280;63802;53.232;6.570;2023-06-24T03:27:58;102488.19;;;15.41;100.00
75221;BME280;63802;53.232;6.570;2023-06-24T03:30:26;102482.13;;;15.48;100.00
75221;BME280;63802;53.232;6.570;2023-06-24T03:32:52;102486.38;;;15.45;100.00
75221;BME280;63802;53.232;6.570;2023-06-24T03:35:17;102487.25;;;15.49;100.00
75221;BME280;63802;53.232;6.570;2023-06-24T03:37:43;102481.31;;;15.47;100.00
75221;BME280;63802;53.232;6.570;2023-06-24T03:40:09;102490.97;;;15.57;100.00
75221;BME280;63802;53.232;6.570;2023-06-24T03:42:34;102485.38;;;15.53;100.00
75221;BME280;63802;53.232;6.570;2023-06-24T03:44:59;102473.22;;;15.54;100.00
75221;BME280;63802;53.232;6.570;2023-06-24T03:47:25;102478.19;;;15.64;100.00
75221;BME280;63802;53.232;6.570;2023-06-24T03:49:50;102473.13;;;15.66;100.00
75221;BME280;63802;53.232;6.570;2023-06-24T03:52:17;102492.19;;;15.75;100.00
75221;BME280;63802;53.232;6.570;2023-06-24T03:54:42;102475.50;;;15.68;100.00
75221;BME280;63802;53.232;6.570;2023-06-24T03:57:08;102478.81;;;15.73;100.00
75221;BME280;63802;53.232;6.570;2023-06-24T03:59:34;102483.69;;;15.80;100.00
75221;BME280;63802;53.232;6.570;2023-06-24T04:01:59;102491.13;;;15.79;100.00
75221;BME280;63802;53.232;6.570;2023-06-24T04:04:25;102478.00;;;15.73;100.00
75221;BME280;63802;53.232;6.570;2023-06-24T04:06:51;102485.19;;;15.77;100.00
75221;BME280;63802;53.232;6.570;2023-06-24T04:09:17;102486.22;;;15.88;100.00
75221;BME280;63802;53.232;6.570;2023-06-24T04:11:42;102491.72;;;15.88;100.00
75221;BME280;63802;53.232;6.570;2023-06-24T04:14:07;102462.63;;;15.72;100.00
75221;BME280;63802;53.232;6.570;2023-06-24T04:16:34;102489.59;;;15.97;100.00
75221;BME280;63802;53.232;6.570;2023-06-24T04:19:00;102500.34;;;16.02;100.00
75221;BME280;63802;53.232;6.570;2023-06-24T04:21:26;102495.19;;;16.01;100.00
75221;BME280;63802;53.232;6.570;2023-06-24T04:23:52;102485.69;;;15.98;100.00
75221;BME280;63802;53.232;6.570;2023-06-24T04:26:17;102502.91;;;16.11;100.00
75221;BME280;63802;53.232;6.570;2023-06-24T04:28:43;102508.66;;;16.22;100.00
75221;BME280;63802;53.232;6.570;2023-06-24T04:31:08;102503.75;;;16.31;100.00
75221;BME280;63802;53.232;6.570;2023-06-24T04:33:34;102499.81;;;16.32;100.00
75221;BME280;63802;53.232;6.570;2023-06-24T04:35:59;102508.69;;;16.41;100.00
75221;BME280;63802;53.232;6.570;2023-06-24T04:38:25;102507.41;;;16.54;100.00
75221;BME280;63802;53.232;6.570;2023-06-24T04:40:51;102506.13;;;16.67;100.00
75221;BME280;63802;53.232;6.570;2023-06-24T04:43:16;102511.84;;;16.77;100.00
75221;BME280;63802;53.232;6.570;2023-06-24T04:45:42;102496.22;;;16.85;100.00
75221;BME280;63802;53.232;6.570;2023-06-24T04:48:07;102507.63;;;17.03;100.00
75221;BME280;63802;53.232;6.570;2023-06-24T04:50:33;102497.38;;;17.03;100.00
75221;BME280;63802;53.232;6.570;2023-06-24T04:53:00;102505.22;;;17.01;100.00
75221;BME280;63802;53.232;6.570;2023-06-24T04:55:27;102492.47;;;16.93;100.00
75221;BME280;63802;53.232;6.570;2023-06-24T04:57:55;102501.88;;;16.92;100.00
75221;BME280;63802;53.232;6.570;2023-06-24T05:00:20;102506.75;;;16.99;100.00
75221;BME280;63802;53.232;6.570;2023-06-24T05:02:48;102498.28;;;17.11;100.00
75221;BME280;63802;53.232;6.570;2023-06-24T05:05:13;102491.56;;;17.08;100.00
75221;BME280;63802;53.232;6.570;2023-06-24T05:07:39;102503.28;;;17.24;100.00
75221;BME280;63802;53.232;6.570;2023-06-24T05:10:05;102512.25;;;17.40;100.00
75221;BME280;63802;53.232;6.570;2023-06-24T05:12:30;102501.84;;;17.53;100.00
75221;BME280;63802;53.232;6.570;2023-06-24T05:14:56;102501.28;;;17.67;100.00
75221;BME280;63802;53.232;6.570;2023-06-24T05:17:21;102499.38;;;17.71;100.00
75221;BME280;63802;53.232;6.570;2023-06-24T05:19:47;102498.13;;;17.91;100.00
75221;BME280;63802;53.232;6.570;2023-06-24T05:22:12;102485.59;;;17.97;100.00
75221;BME280;63802;53.232;6.570;2023-06-24T05:24:38;102477.84;;;18.06;100.00
75221;BME280;63802;53.232;6.570;2023-06-24T05:27:05;102481.63;;;18.24;100.00
75221;BME280;63802;53.232;6.570;2023-06-24T05:29:32;102483.00;;;18.37;100.00
75221;BME280;63802;53.232;6.570;2023-06-24T05:31:57;102487.22;;;18.57;100.00
75221;BME280;63802;53.232;6.570;2023-06-24T05:34:24;102485.06;;;18.73;100.00
75221;BME280;63802;53.232;6.570;2023-06-24T05:36:49;102482.78;;;18.83;100.00
75221;BME280;63802;53.232;6.570;2023-06-24T05:39:15;102460.25;;;18.81;100.00
75221;BME280;63802;53.232;6.570;2023-06-24T05:41:40;102489.38;;;19.08;100.00
75221;BME280;63802;53.232;6.570;2023-06-24T05:44:09;102487.53;;;19.19;100.00
75221;BME280;63802;53.232;6.570;2023-06-24T05:46:35;102488.75;;;19.25;100.00
75221;BME280;63802;53.232;6.570;2023-06-24T05:49:01;102484.19;;;19.39;100.00
75221;BME280;63802;53.232;6.570;2023-06-24T05:51:26;102485.84;;;19.51;100.00
75221;BME280;63802;53.232;6.570;2023-06-24T05:53:52;102490.59;;;19.47;100.00
75221;BME280;63802;53.232;6.570;2023-06-24T05:56:18;102488.25;;;19.53;100.00
75221;BME280;63802;53.232;6.570;2023-06-24T05:58:43;102490.69;;;19.61;100.00
75221;BME280;63802;53.232;6.570;2023-06-24T06:01:09;102484.53;;;19.82;100.00
75221;BME280;63802;53.232;6.570;2023-06-24T06:03:36;102475.88;;;19.90;100.00
75221;BME280;63802;53.232;6.570;2023-06-24T06:06:01;102480.75;;;20.11;100.00
75221;BME280;63802;53.232;6.570;2023-06-24T06:08:27;102497.25;;;20.55;100.00
75221;BME280;63802;53.232;6.570;2023-06-24T06:10:53;102487.69;;;20.45;100.00
75221;BME280;63802;53.232;6.570;2023-06-24T06:13:18;102486.56;;;20.64;100.00
75221;BME280;63802;53.232;6.570;2023-06-24T06:15:44;102475.44;;;20.50;100.00
75221;BME280;63802;53.232;6.570;2023-06-24T06:18:10;102478.34;;;20.89;100.00
75221;BME280;63802;53.232;6.570;2023-06-24T06:20:35;102492.59;;;20.80;100.00
75221;BME280;63802;53.232;6.570;2023-06-24T06:23:01;102500.19;;;21.04;100.00
75221;BME280;63802;53.232;6.570;2023-06-24T06:25:27;102493.81;;;21.00;100.00
75221;BME280;63802;53.232;6.570;2023-06-24T06:27:52;102504.88;;;20.79;100.00
75221;BME280;63802;53.232;6.570;2023-06-24T06:30:17;102504.03;;;20.64;100.00
75221;BME280;63802;53.232;6.570;2023-06-24T06:32:43;102496.53;;;20.72;100.00
75221;BME280;63802;53.232;6.570;2023-06-24T06:35:09;102496.06;;;20.56;100.00
75221;BME280;63802;53.232;6.570;2023-06-24T06:37:34;102491.41;;;20.81;100.00
75221;BME280;63802;53.232;6.570;2023-06-24T06:40:00;102490.22;;;20.86;100.00
75221;BME280;63802;53.232;6.570;2023-06-24T06:42:26;102490.72;;;21.19;100.00
75221;BME280;63802;53.232;6.570;2023-06-24T06:44:51;102487.59;;;21.42;100.00
75221;BME280;63802;53.232;6.570;2023-06-24T06:47:16;102462.97;;;21.41;100.00
75221;BME280;63802;53.232;6.570;2023-06-24T06:49:42;102480.81;;;21.61;100.00
75221;BME280;63802;53.232;6.570;2023-06-24T06:52:08;102482.03;;;21.88;100.00
75221;BME280;63802;53.232;6.570;2023-06-24T06:54:34;102485.19;;;21.55;100.00
75221;BME280;63802;53.232;6.570;2023-06-24T06:57:03;102462.16;;;21.36;100.00
75221;BME280;63802;53.232;6.570;2023-06-24T06:59:32;102473.31;;;21.40;100.00
75221;BME280;63802;53.232;6.570;2023-06-24T07:01:57;102483.19;;;21.55;100.00
75221;BME280;63802;53.232;6.570;2023-06-24T07:04:23;102484.78;;;21.77;100.00
75221;BME280;63802;53.232;6.570;2023-06-24T07:06:49;102466.09;;;21.95;100.00
75221;BME280;63802;53.232;6.570;2023-06-24T07:09:14;102496.97;;;22.40;100.00
75221;BME280;63802;53.232;6.570;2023-06-24T07:11:41;102486.63;;;22.47;100.00
75221;BME280;63802;53.232;6.570;2023-06-24T07:14:07;102492.19;;;22.44;100.00
75221;BME280;63802;53.232;6.570;2023-06-24T07:16:32;102490.53;;;22.75;100.00
75221;BME280;63802;53.232;6.570;2023-06-24T07:18:58;102480.16;;;22.79;100.00
75221;BME280;63802;53.232;6.570;2023-06-24T07:21:23;102495.59;;;22.94;100.00
75221;BME280;63802;53.232;6.570;2023-06-24T07:23:49;102499.75;;;23.23;100.00
75221;BME280;63802;53.232;6.570;2023-06-24T07:26:14;102478.69;;;23.22;100.00
75221;BME280;63802;53.232;6.570;2023-06-24T07:28:40;102487.78;;;23.29;100.00
75221;BME280;63802;53.232;6.570;2023-06-24T07:31:05;102487.28;;;23.45;100.00
75221;BME280;63802;53.232;6.570;2023-06-24T07:33:31;102490.13;;;23.42;98.93
75221;BME280;63802;53.232;6.570;2023-06-24T07:35:58;102498.75;;;23.54;99.05
75221;BME280;63802;53.232;6.570;2023-06-24T07:38:24;102491.31;;;23.85;98.33
75221;BME280;63802;53.232;6.570;2023-06-24T07:40:49;102482.78;;;24.40;97.93
75221;BME280;63802;53.232;6.570;2023-06-24T07:43:15;102493.88;;;25.07;92.59
75221;BME280;63802;53.232;6.570;2023-06-24T07:45:40;102478.53;;;25.15;84.20
75221;BME280;63802;53.232;6.570;2023-06-24T07:48:06;102493.75;;;25.14;81.50
75221;BME280;63802;53.232;6.570;2023-06-24T07:50:35;102489.72;;;25.15;79.16
75221;BME280;63802;53.232;6.570;2023-06-24T07:53:02;102497.56;;;24.67;80.54
75221;BME280;63802;53.232;6.570;2023-06-24T07:55:27;102496.63;;;24.81;81.33
75221;BME280;63802;53.232;6.570;2023-06-24T07:57:53;102482.22;;;24.82;82.38
75221;BME280;63802;53.232;6.570;2023-06-24T08:00:19;102454.31;;;24.52;84.22
75221;BME280;63802;53.232;6.570;2023-06-24T08:02:45;102469.56;;;25.27;82.48
75221;BME280;63802;53.232;6.570;2023-06-24T08:05:12;102487.25;;;25.21;75.78
75221;BME280;63802;53.232;6.570;2023-06-24T08:07:38;102453.16;;;25.06;74.60
75221;BME280;63802;53.232;6.570;2023-06-24T08:10:04;102485.72;;;25.16;73.84
75221;BME280;63802;53.232;6.570;2023-06-24T08:12:31;102476.97;;;25.64;76.88
75221;BME280;63802;53.232;6.570;2023-06-24T08:14:56;102461.44;;;25.83;74.96
75221;BME280;63802;53.232;6.570;2023-06-24T08:17:22;102479.09;;;25.80;72.56
75221;BME280;63802;53.232;6.570;2023-06-24T08:19:48;102477.47;;;25.33;71.21
75221;BME280;63802;53.232;6.570;2023-06-24T08:22:13;102463.75;;;25.42;70.68
75221;BME280;63802;53.232;6.570;2023-06-24T08:24:39;102478.94;;;25.67;72.81
75221;BME280;63802;53.232;6.570;2023-06-24T08:27:05;102458.03;;;25.95;73.68
75221;BME280;63802;53.232;6.570;2023-06-24T08:29:31;102474.53;;;26.09;67.36
75221;BME280;63802;53.232;6.570;2023-06-24T08:31:56;102466.03;;;26.36;69.72
75221;BME280;63802;53.232;6.570;2023-06-24T08:34:22;102477.63;;;26.54;66.67
75221;BME280;63802;53.232;6.570;2023-06-24T08:36:47;102475.47;;;26.61;65.99
75221;BME280;63802;53.232;6.570;2023-06-24T08:39:13;102473.41;;;26.66;66.02
75221;BME280;63802;53.232;6.570;2023-06-24T08:41:38;102468.38;;;26.77;67.73
75221;BME280;63802;53.232;6.570;2023-06-24T08:44:04;102467.81;;;26.66;63.26
75221;BME280;63802;53.232;6.570;2023-06-24T08:46:30;102468.44;;;27.09;63.50
75221;BME280;63802;53.232;6.570;2023-06-24T08:49:28;102471.81;;;26.65;63.87
75221;BME280;63802;53.232;6.570;2023-06-24T08:52:00;102469.47;;;26.43;62.18
75221;BME280;63802;53.232;6.570;2023-06-24T08:54:26;102462.13;;;26.10;64.96
75221;BME280;63802;53.232;6.570;2023-06-24T08:56:53;102472.84;;;26.54;62.64
75221;BME280;63802;53.232;6.570;2023-06-24T08:59:19;102474.91;;;27.06;59.68
75221;BME280;63802;53.232;6.570;2023-06-24T09:01:50;102467.81;;;27.34;60.24
75221;BME280;63802;53.232;6.570;2023-06-24T09:04:16;102451.97;;;27.27;58.60
75221;BME280;63802;53.232;6.570;2023-06-24T09:06:42;102481.84;;;28.11;56.13
75221;BME280;63802;53.232;6.570;2023-06-24T09:09:18;102477.81;;;28.53;55.77
75221;BME280;63802;53.232;6.570;2023-06-24T09:11:51;102447.34;;;28.39;53.92
75221;BME280;63802;53.232;6.570;2023-06-24T09:14:17;102476.88;;;28.97;54.29
75221;BME280;63802;53.232;6.570;2023-06-24T09:16:51;102467.66;;;29.09;52.16
75221;BME280;63802;53.232;6.570;2023-06-24T09:19:20;102464.47;;;28.57;51.32
75221;BME280;63802;53.232;6.570;2023-06-24T09:21:45;102470.00;;;28.32;53.48
75221;BME280;63802;53.232;6.570;2023-06-24T09:24:11;102470.56;;;27.53;54.45
75221;BME280;63802;53.232;6.570;2023-06-24T09:26:37;102473.34;;;27.53;56.38
75221;BME280;63802;53.232;6.570;2023-06-24T09:29:03;102474.22;;;27.34;57.79
75221;BME280;63802;53.232;6.570;2023-06-24T09:31:29;102464.06;;;27.56;56.93
75221;BME280;63802;53.232;6.570;2023-06-24T09:33:58;102460.88;;;27.70;55.88
75221;BME280;63802;53.232;6.570;2023-06-24T09:36:24;102461.41;;;27.33;58.05
75221;BME280;63802;53.232;6.570;2023-06-24T09:38:49;102437.06;;;27.46;57.55
75221;BME280;63802;53.232;6.570;2023-06-24T09:41:15;102452.28;;;28.35;56.86
75221;BME280;63802;53.232;6.570;2023-06-24T09:43:42;102444.41;;;28.30;54.81
75221;BME280;63802;53.232;6.570;2023-06-24T09:46:13;102448.81;;;28.56;52.43
75221;BME280;63802;53.232;6.570;2023-06-24T09:48:39;102436.66;;;28.34;51.85
75221;BME280;63802;53.232;6.570;2023-06-24T09:51:08;102439.09;;;28.19;53.10
75221;BME280;63802;53.232;6.570;2023-06-24T09:53:35;102421.28;;;28.51;53.42
75221;BME280;63802;53.232;6.570;2023-06-24T09:56:03;102454.09;;;29.55;53.24
75221;BME280;63802;53.232;6.570;2023-06-24T09:58:31;102447.88;;;29.60;49.07
75221;BME280;63802;53.232;6.570;2023-06-24T10:01:02;102429.88;;;29.57;49.50
75221;BME280;63802;53.232;6.570;2023-06-24T10:03:29;102433.56;;;29.67;48.71
75221;BME280;63802;53.232;6.570;2023-06-24T10:05:55;102438.53;;;29.97;48.39
75221;BME280;63802;53.232;6.570;2023-06-24T10:08:21;102434.66;;;29.82;47.38
75221;BME280;63802;53.232;6.570;2023-06-24T10:10:46;102419.00;;;29.81;47.60
75221;BME280;63802;53.232;6.570;2023-06-24T10:13:12;102439.13;;;30.35;48.59
75221;BME280;63802;53.232;6.570;2023-06-24T10:15:38;102429.56;;;30.64;45.79
75221;BME280;63802;53.232;6.570;2023-06-24T10:18:36;102433.53;;;31.15;44.98
75221;BME280;63802;53.232;6.570;2023-06-24T10:21:03;102436.72;;;31.35;41.98
75221;BME280;63802;53.232;6.570;2023-06-24T10:23:42;102438.91;;;31.40;41.71
75221;BME280;63802;53.232;6.570;2023-06-24T10:26:24;102438.56;;;31.29;41.14
75221;BME280;63802;53.232;6.570;2023-06-24T10:31:50;102421.88;;;32.67;40.01
75221;BME280;63802;53.232;6.570;2023-06-24T10:36:58;102428.19;;;33.19;37.50
75221;BME280;63802;53.232;6.570;2023-06-24T10:39:47;102437.53;;;33.10;37.36
75221;BME280;63802;53.232;6.570;2023-06-24T10:45:00;102415.06;;;32.23;38.63
75221;BME280;63802;53.232;6.570;2023-06-24T10:47:27;102429.47;;;31.34;40.99
75221;BME280;63802;53.232;6.570;2023-06-24T10:49:53;102429.09;;;30.96;43.25
75221;BME280;63802;53.232;6.570;2023-06-24T10:52:19;102401.66;;;30.04;43.76
75221;BME280;63802;53.232;6.570;2023-06-24T10:54:46;102409.91;;;29.99;44.87
75221;BME280;63802;53.232;6.570;2023-06-24T10:57:12;102416.41;;;29.74;44.84
75221;BME280;63802;53.232;6.570;2023-06-24T10:59:42;102418.09;;;29.50;46.60
75221;BME280;63802;53.232;6.570;2023-06-24T11:02:09;102409.81;;;29.68;47.57
75221;BME280;63802;53.232;6.570;2023-06-24T11:04:45;102418.91;;;30.59;46.88
75221;BME280;63802;53.232;6.570;2023-06-24T11:07:11;102416.63;;;31.24;46.23
75221;BME280;63802;53.232;6.570;2023-06-24T11:09:37;102419.06;;;30.95;43.03
75221;BME280;63802;53.232;6.570;2023-06-24T11:12:03;102394.41;;;31.44;42.05
75221;BME280;63802;53.232;6.570;2023-06-24T11:14:29;102402.19;;;32.22;41.11
75221;BME280;63802;53.232;6.570;2023-06-24T11:16:54;102401.75;;;32.14;39.73
75221;BME280;63802;53.232;6.570;2023-06-24T11:19:20;102400.78;;;32.68;39.06
75221;BME280;63802;53.232;6.570;2023-06-24T11:21:47;102408.56;;;32.40;39.75
75221;BME280;63802;53.232;6.570;2023-06-24T11:24:13;102409.31;;;32.59;39.95
75221;BME280;63802;53.232;6.570;2023-06-24T11:26:38;102367.25;;;31.83;39.46
75221;BME280;63802;53.232;6.570;2023-06-24T11:29:13;102393.47;;;31.84;40.98
75221;BME280;63802;53.232;6.570;2023-06-24T11:31:39;102392.06;;;31.97;42.96
75221;BME280;63802;53.232;6.570;2023-06-24T11:34:04;102394.56;;;31.59;41.63
75221;BME280;63802;53.232;6.570;2023-06-24T11:36:30;102377.69;;;31.01;43.27
75221;BME280;63802;53.232;6.570;2023-06-24T11:38:55;102394.03;;;30.35;45.39
75221;BME280;63802;53.232;6.570;2023-06-24T11:41:21;102398.06;;;30.04;48.79
75221;BME280;63802;53.232;6.570;2023-06-24T11:43:49;102393.00;;;30.20;48.81
75221;BME280;63802;53.232;6.570;2023-06-24T11:46:23;102397.63;;;31.15;45.61
75221;BME280;63802;53.232;6.570;2023-06-24T11:48:50;102387.16;;;31.16;45.15
75221;BME280;63802;53.232;6.570;2023-06-24T11:51:16;102401.91;;;31.38;46.71
75221;BME280;63802;53.232;6.570;2023-06-24T11:53:49;102363.16;;;31.21;45.38
75221;BME280;63802;53.232;6.570;2023-06-24T11:56:21;102371.84;;;31.62;43.12
75221;BME280;63802;53.232;6.570;2023-06-24T11:58:59;102352.94;;;30.96;41.99
75221;BME280;63802;53.232;6.570;2023-06-24T12:01:31;102358.03;;;31.46;43.23
75221;BME280;63802;53.232;6.570;2023-06-24T12:04:12;102384.66;;;32.00;40.97
75221;BME280;63802;53.232;6.570;2023-06-24T12:06:39;102361.00;;;31.79;39.14
75221;BME280;63802;53.232;6.570;2023-06-24T12:09:05;102389.06;;;31.83;38.97
75221;BME280;63802;53.232;6.570;2023-06-24T12:11:30;102380.34;;;32.31;38.35
75221;BME280;63802;53.232;6.570;2023-06-24T12:13:55;102374.59;;;32.91;37.76
75221;BME280;63802;53.232;6.570;2023-06-24T12:16:21;102359.31;;;33.22;36.36
75221;BME280;63802;53.232;6.570;2023-06-24T12:18:52;102378.16;;;33.25;35.58
75221;BME280;63802;53.232;6.570;2023-06-24T12:21:18;102375.84;;;32.90;36.95
75221;BME280;63802;53.232;6.570;2023-06-24T12:23:44;102369.19;;;32.37;38.49
75221;BME280;63802;53.232;6.570;2023-06-24T12:26:09;102380.25;;;33.39;37.20
75221;BME280;63802;53.232;6.570;2023-06-24T12:28:35;102387.06;;;33.32;37.14
75221;BME280;63802;53.232;6.570;2023-06-24T12:31:01;102368.94;;;32.59;37.03
75221;BME280;63802;53.232;6.570;2023-06-24T12:33:27;102355.06;;;32.28;37.64
75221;BME280;63802;53.232;6.570;2023-06-24T12:35:53;102366.25;;;32.13;36.86
75221;BME280;63802;53.232;6.570;2023-06-24T12:38:19;102358.31;;;31.94;37.77
75221;BME280;63802;53.232;6.570;2023-06-24T12:40:44;102378.72;;;31.89;39.80
75221;BME280;63802;53.232;6.570;2023-06-24T12:43:10;102355.13;;;32.10;38.40
75221;BME280;63802;53.232;6.570;2023-06-24T12:45:37;102362.41;;;32.76;37.39
75221;BME280;63802;53.232;6.570;2023-06-24T12:48:03;102371.47;;;33.37;37.12
75221;BME280;63802;53.232;6.570;2023-06-24T12:50:31;102357.13;;;33.17;35.69
75221;BME280;63802;53.232;6.570;2023-06-24T12:52:57;102383.34;;;33.02;36.32
75221;BME280;63802;53.232;6.570;2023-06-24T12:55:24;102386.72;;;32.83;36.88
75221;BME280;63802;53.232;6.570;2023-06-24T12:57:49;102380.06;;;32.95;37.92
75221;BME280;63802;53.232;6.570;2023-06-24T13:00:15;102376.75;;;33.44;37.46
75221;BME280;63802;53.232;6.570;2023-06-24T13:02:42;102362.88;;;33.46;36.05
75221;BME280;63802;53.232;6.570;2023-06-24T13:05:11;102367.38;;;33.38;36.38